Date,TemperatureHighF,TemperatureAvgF,TemperatureLowF,DewpointHighF,DewpointAvgF,DewpointLowF,HumidityHigh,HumidityAvg,HumidityLow,PressureMaxIn,PressureMinIn,WindSpeedMaxMPH,WindSpeedAvgMPH,GustSpeedMaxMPH,PrecipitationSumIn
2013-9-1,92,72,60,72,63,56,93,74,44,29.84,29.72,0,0,0,0.00
2013-9-2,76,64,51,59,55,46,90,73,49,30.01,29.84,0,0,0,0.00
2013-9-3,80,60,44,56,49,41,91,71,40,30.10,30.00,0,0,0,0.00
2013-9-4,91,67,47,64,56,44,91,70,40,30.12,30.03,0,0,0,0.00
2013-9-5,88,69,54,62,57,45,89,68,40,30.26,30.12,0,0,0,0.00
2013-9-6,95,71,49,67,57,43,86,65,39,30.22,29.98,0,0,0,0.00
2013-9-7,94,75,68,72,64,60,85,71,47,29.98,29.88,0,0,0,0.00
2013-9-8,74,68,61,66,62,56,85,81,73,30.07,29.95,0,0,0,0.00
2013-9-9,102,80,63,77,68,60,91,70,45,29.97,29.77,0,0,0,0.00
2013-9-10,102,85,76,69,63,59,67,50,28,29.96,29.82,0,0,0,0.00
2013-9-11,88,74,65,68,64,62,89,72,51,30.10,29.95,0,0,0,0.11
2013-9-12,77,65,55,62,53,47,90,66,41,30.14,29.97,0,0,0,0.00
2013-9-13,73,56,44,47,41,36,87,61,32,30.22,30.14,0,0,0,0.00
2013-9-14,83,58,38,50,42,34,89,61,29,30.16,29.97,0,0,0,0.00
2013-9-15,65,56,53,57,51,44,90,83,58,30.22,29.96,0,0,0,0.61
2013-9-16,74,55,41,50,44,37,86,69,39,30.38,30.22,0,0,0,0.00
2013-9-17,78,56,39,55,47,35,91,74,44,30.33,30.07,0,0,0,0.04
2013-9-18,82,67,57,67,60,53,88,77,57,30.08,29.88,0,0,0,0.03
2013-9-19,95,73,66,74,67,63,92,83,47,29.89,29.71,0,0,0,2.11
2013-9-20,72,65,56,64,58,52,93,80,58,29.83,29.72,0,0,0,0.01
2013-9-21,63,53,44,52,46,40,89,77,56,29.95,29.83,0,0,0,0.00
2013-9-22,75,53,40,52,43,37,91,72,40,30.07,29.94,0,0,0,0.00
2013-9-23,78,55,38,55,45,35,91,73,42,30.10,30.01,0,0,0,0.00
2013-9-24,83,57,40,56,47,37,91,71,38,30.04,29.94,0,0,0,0.00
2013-9-25,82,58,43,57,48,39,92,73,40,29.99,29.93,0,0,0,0.00
2013-9-26,89,60,42,60,48,39,93,70,32,30.07,29.98,0,0,0,0.00
2013-9-27,93,64,44,59,50,41,91,64,27,30.13,30.02,0,0,0,0.00
2013-9-28,85,64,51,64,53,43,90,70,44,30.03,29.81,0,0,0,0.24
2013-9-29,85,58,42,53,46,39,91,68,25,30.06,29.96,0,0,0,0.01
2013-9-30,84,58,39,51,44,36,91,63,28,29.99,29.80,0,0,0,0.00